Time;durP1;ratioP1;P1;durP2;ratioP2;P2;SDS_P1;SDS_P2;PMS_P1;PMS_P2;Temp;Humidity;BMP_temperature;BMP_pressure;BME280_temperature;BME280_humidity;BME280_pressure;Samples;Min_cycle;Max_cycle;Signal;HPM_P1;HPM_P2
2022/02/22 00:01:59;;;;;;;25.15;3.78;;;4.90;99.90;;;;;;12533156;28;20135;-82
2022/02/22 00:08:01;;;;;;;19.67;3.10;;;4.80;99.90;;;;;;12547648;28;20139;-84
2022/02/22 00:14:03;;;;;;;25.65;3.20;;;4.70;99.90;;;;;;12524002;28;20087;-83
2022/02/22 00:20:09;;;;;;;31.55;3.35;;;4.60;99.90;;;;;;12540226;28;20048;-84
2022/02/22 00:26:11;;;;;;;19.23;4.13;;;4.60;99.90;;;;;;12478924;28;20098;-83
2022/02/22 00:32:13;;;;;;;22.73;3.83;;;4.60;99.90;;;;;;12541056;28;20413;-82
2022/02/22 00:38:15;;;;;;;26.23;3.90;;;4.60;99.90;;;;;;12519202;28;20049;-84
2022/02/22 00:44:17;;;;;;;20.02;3.42;;;4.60;99.90;;;;;;12529778;28;20620;-82
2022/02/22 00:50:19;;;;;;;27.80;3.97;;;4.50;99.90;;;;;;12530717;28;20099;-82
2022/02/22 00:56:22;;;;;;;27.42;5.03;;;4.50;99.90;;;;;;12523262;28;20052;-85
2022/02/22 01:02:24;;;;;;;31.65;3.95;;;4.60;99.90;;;;;;12519959;28;20041;-84
2022/02/22 01:08:32;;;;;;;25.48;2.90;;;4.60;99.90;;;;;;12521936;28;20053;-85
2022/02/22 01:14:35;;;;;;;12.73;2.65;;;4.60;99.90;;;;;;12538958;28;20049;-82
2022/02/22 01:20:37;;;;;;;13.07;2.13;;;4.50;99.90;;;;;;12519196;28;20059;-82
2022/02/22 01:26:39;;;;;;;12.63;1.90;;;4.40;99.90;;;;;;12508942;28;20572;-83
2022/02/22 01:32:41;;;;;;;15.18;2.40;;;4.20;99.90;;;;;;12522962;28;20053;-84
2022/02/22 01:38:44;;;;;;;14.70;2.75;;;3.90;99.90;;;;;;12548264;28;20062;-84
2022/02/22 01:44:48;;;;;;;24.80;3.22;;;3.70;99.90;;;;;;12535706;28;20052;-84
2022/02/22 01:50:50;;;;;;;29.50;4.70;;;3.70;99.90;;;;;;12522297;28;20061;-85
2022/02/22 01:56:53;;;;;;;22.70;3.20;;;3.70;99.90;;;;;;12523999;28;20053;-84
2022/02/22 02:02:55;;;;;;;23.02;3.22;;;3.70;99.90;;;;;;12530132;28;20084;-83
2022/02/22 02:08:57;;;;;;;20.27;3.25;;;3.80;99.90;;;;;;12532030;28;20056;-83
2022/02/22 02:14:59;;;;;;;26.08;3.13;;;3.80;99.90;;;;;;12524934;28;20493;-83
2022/02/22 02:21:01;;;;;;;28.10;3.83;;;3.80;99.90;;;;;;12532755;28;20079;-82
2022/02/22 02:27:03;;;;;;;21.65;3.40;;;3.70;99.90;;;;;;12531304;28;20068;-87
2022/02/22 02:33:05;;;;;;;28.35;3.30;;;3.70;99.90;;;;;;12522607;28;20060;-83
2022/02/22 02:39:08;;;;;;;31.15;4.80;;;3.80;99.90;;;;;;12544740;28;20059;-83
2022/02/22 02:45:11;;;;;;;27.17;4.45;;;3.70;99.90;;;;;;12529431;28;20137;-85
2022/02/22 02:51:13;;;;;;;31.95;6.18;;;3.80;99.90;;;;;;12559640;28;20052;-84
2022/02/22 02:57:15;;;;;;;34.63;4.60;;;3.80;99.90;;;;;;12524842;28;20047;-83
2022/02/22 03:03:17;;;;;;;34.55;4.68;;;3.90;99.90;;;;;;12516416;28;20053;-83
2022/02/22 03:09:19;;;;;;;26.30;3.67;;;3.90;99.90;;;;;;12521918;28;20057;-83
2022/02/22 03:15:21;;;;;;;33.10;4.97;;;3.90;99.90;;;;;;12508919;28;20076;-84
2022/02/22 03:21:23;;;;;;;26.92;4.75;;;3.90;99.90;;;;;;12526339;28;20055;-83
2022/02/22 03:27:25;;;;;;;31.80;4.65;;;3.80;99.90;;;;;;12539754;28;20048;-85
2022/02/22 03:33:28;;;;;;;38.28;4.47;;;3.80;99.90;;;;;;12521885;28;20091;-82
2022/02/22 03:39:29;;;;;;;45.13;5.03;;;3.70;99.90;;;;;;12525188;28;20087;-82
2022/02/22 03:45:33;;;;;;;27.17;4.30;;;3.70;99.90;;;;;;12540175;28;20044;-83
2022/02/22 03:51:35;;;;;;;23.65;4.90;;;3.70;99.90;;;;;;12491302;28;20053;-83
2022/02/22 03:57:37;;;;;;;30.90;4.88;;;3.70;99.90;;;;;;12539310;28;20197;-83
2022/02/22 04:03:39;;;;;;;28.88;3.78;;;3.60;99.90;;;;;;12519948;28;20082;-83
2022/02/22 04:09:41;;;;;;;27.55;4.50;;;3.70;99.90;;;;;;12507278;28;20085;-83
2022/02/22 04:15:43;;;;;;;32.53;5.35;;;3.70;99.90;;;;;;12509666;28;20424;-83
2022/02/22 04:21:45;;;;;;;32.20;4.40;;;3.60;99.90;;;;;;12523655;28;20876;-82
2022/02/22 04:27:47;;;;;;;29.58;3.95;;;3.60;99.90;;;;;;12525860;28;20647;-83
2022/02/22 04:33:49;;;;;;;26.90;3.65;;;3.60;99.90;;;;;;12522158;28;20053;-84
2022/02/22 04:39:51;;;;;;;33.70;3.85;;;3.60;99.90;;;;;;12529711;28;20044;-84
2022/02/22 04:45:54;;;;;;;30.15;4.30;;;3.60;99.90;;;;;;12539158;28;20045;-83
2022/02/22 04:51:57;;;;;;;31.35;5.35;;;3.50;99.90;;;;;;12521549;28;20157;-83
2022/02/22 04:57:59;;;;;;;24.98;4.13;;;3.60;99.90;;;;;;12517906;28;20045;-84
2022/02/22 05:04:01;;;;;;;33.13;3.95;;;3.60;99.90;;;;;;12520453;28;20094;-83
2022/02/22 05:10:03;;;;;;;25.40;3.83;;;3.50;99.90;;;;;;12509726;28;20055;-82
2022/02/22 05:16:06;;;;;;;28.17;4.78;;;3.50;99.90;;;;;;12524299;28;20053;-83
2022/02/22 05:22:08;;;;;;;24.25;3.20;;;3.50;99.90;;;;;;12528475;28;20040;-83
2022/02/22 05:28:10;;;;;;;26.95;3.22;;;3.50;99.90;;;;;;12517995;28;20616;-82
2022/02/22 05:34:11;;;;;;;33.53;6.13;;;3.50;99.90;;;;;;12535065;28;20131;-83
2022/02/22 05:40:14;;;;;;;27.00;3.58;;;3.40;99.90;;;;;;12532004;28;20072;-82
2022/02/22 05:46:17;;;;;;;23.13;3.42;;;3.40;99.90;;;;;;12516948;28;20112;-83
2022/02/22 05:52:19;;;;;;;27.83;3.88;;;3.30;99.90;;;;;;12521583;28;20087;-83
2022/02/22 05:58:21;;;;;;;33.05;4.20;;;3.30;99.90;;;;;;12518758;28;20099;-81
2022/02/22 06:04:23;;;;;;;29.15;4.03;;;3.30;99.90;;;;;;12501217;28;20048;-83
2022/02/22 06:10:28;;;;;;;28.40;3.05;;;3.30;99.90;;;;;;12542286;28;20048;-82
2022/02/22 06:16:30;;;;;;;28.77;3.55;;;3.30;99.90;;;;;;12517097;28;20301;-82
2022/02/22 06:22:32;;;;;;;25.58;4.15;;;3.30;99.90;;;;;;12501123;28;20041;-82
2022/02/22 06:28:34;;;;;;;41.28;4.50;;;3.20;99.90;;;;;;12518941;28;20078;-83
2022/02/22 06:34:38;;;;;;;30.17;4.43;;;3.30;99.90;;;;;;12508728;28;20060;-83
2022/02/22 06:40:40;;;;;;;23.60;3.90;;;3.30;99.90;;;;;;12514061;28;20049;-82
2022/02/22 06:46:42;;;;;;;34.53;5.18;;;3.20;99.90;;;;;;12538082;28;20054;-83
2022/02/22 06:52:44;;;;;;;30.23;3.80;;;3.30;99.90;;;;;;12523548;28;20139;-83
2022/02/22 06:58:46;;;;;;;29.60;3.60;;;3.20;99.90;;;;;;12526522;28;20137;-83
2022/02/22 07:04:48;;;;;;;27.13;3.88;;;3.20;99.90;;;;;;12555730;28;20044;-84
2022/02/22 07:10:51;;;;;;;21.55;2.80;;;3.30;99.90;;;;;;12558711;28;20053;-84
2022/02/22 07:16:57;;;;;;;30.98;4.20;;;3.30;99.90;;;;;;12552355;28;20044;-85
2022/02/22 07:23:02;;;;;;;26.23;3.88;;;3.40;99.90;;;;;;12530709;28;20052;-83
2022/02/22 07:29:04;;;;;;;26.50;3.80;;;3.50;99.90;;;;;;12526302;28;20056;-83
2022/02/22 07:35:07;;;;;;;22.83;2.97;;;3.50;99.90;;;;;;12514487;28;20124;-83
2022/02/22 07:41:10;;;;;;;18.73;2.90;;;3.60;99.90;;;;;;12519907;28;20122;-82
2022/02/22 07:47:12;;;;;;;28.35;4.15;;;3.80;99.90;;;;;;12518916;28;20079;-83
2022/02/22 07:53:14;;;;;;;30.48;3.70;;;3.90;99.90;;;;;;12520616;28;20041;-84
2022/02/22 07:59:16;;;;;;;34.40;3.85;;;4.10;99.90;;;;;;12552731;28;20056;-82
2022/02/22 08:05:18;;;;;;;26.85;3.28;;;4.30;99.90;;;;;;12516439;28;20041;-83
2022/02/22 08:11:22;;;;;;;;;;;4.40;99.90;;;;;;12524386;28;20049;-82
2022/02/22 08:17:25;;;;;;;33.20;4.07;;;4.60;99.90;;;;;;12510828;28;19961;-83
2022/02/22 08:23:30;;;;;;;33.53;4.25;;;4.70;99.90;;;;;;12516306;28;20521;-82
2022/02/22 08:29:32;;;;;;;29.60;3.95;;;4.70;99.90;;;;;;12514286;28;20045;-83
2022/02/22 08:35:35;;;;;;;30.33;4.47;;;4.70;99.90;;;;;;12508566;28;20639;-84
2022/02/22 08:41:37;;;;;;;28.60;3.70;;;4.70;99.90;;;;;;12535924;28;20052;-82
2022/02/22 08:47:39;;;;;;;26.05;3.97;;;4.70;99.90;;;;;;12530306;28;20859;-83
2022/02/22 08:53:41;;;;;;;25.17;3.88;;;4.90;99.90;;;;;;12513631;28;20071;-84
2022/02/22 08:59:44;;;;;;;28.10;3.97;;;5.00;99.90;;;;;;12509650;28;20105;-82
2022/02/22 09:05:46;;;;;;;20.85;3.78;;;5.10;99.90;;;;;;12515521;28;20048;-82
2022/02/22 09:11:48;;;;;;;19.60;3.70;;;5.00;99.90;;;;;;12504374;28;20092;-82
2022/02/22 09:17:50;;;;;;;28.88;4.03;;;5.10;99.90;;;;;;12523947;28;20065;-83
2022/02/22 09:23:52;;;;;;;27.95;3.83;;;5.10;99.90;;;;;;12517397;28;20049;-82
2022/02/22 09:29:55;;;;;;;30.05;4.13;;;5.30;99.90;;;;;;12517391;28;20060;-83
2022/02/22 09:35:58;;;;;;;24.77;3.95;;;5.40;99.90;;;;;;12510846;28;20048;-83
2022/02/22 09:42:02;;;;;;;32.87;3.67;;;5.20;99.90;;;;;;12513868;28;20044;-83
2022/02/22 09:48:05;;;;;;;24.80;3.33;;;5.40;99.90;;;;;;12524049;28;20068;-81
2022/02/22 09:54:07;;;;;;;23.92;3.40;;;5.50;99.90;;;;;;12519576;28;20075;-82
2022/02/22 10:00:18;;;;;;;26.40;3.97;;;5.60;99.90;;;;;;12509795;28;20044;-83
2022/02/22 10:06:25;;;;;;;31.00;3.85;;;5.60;99.90;;;;;;12515214;28;20066;-85
2022/02/22 10:12:38;;;;;;;27.70;4.35;;;5.90;99.90;;;;;;12520444;28;20045;-82
2022/02/22 10:18:54;;;;;;;23.80;4.47;;;6.00;99.90;;;;;;12519137;28;20052;-83
2022/02/22 10:25:08;;;;;;;17.75;3.30;;;6.20;99.90;;;;;;12539226;28;20147;-82
2022/02/22 10:31:10;;;;;;;26.70;4.23;;;6.40;99.90;;;;;;12503417;28;20077;-83
2022/02/22 10:37:13;;;;;;;21.67;3.03;;;6.40;99.90;;;;;;12524231;28;20174;-84
2022/02/22 10:43:22;;;;;;;22.73;3.33;;;6.30;99.90;;;;;;12535077;28;20068;-83
2022/02/22 10:49:33;;;;;;;24.75;3.83;;;6.40;99.90;;;;;;12507220;28;20064;-83
2022/02/22 10:55:36;;;;;;;18.52;2.72;;;6.60;99.90;;;;;;12513586;28;20041;-82
2022/02/22 11:01:39;;;;;;;26.10;4.38;;;6.80;99.90;;;;;;12516322;28;20068;-81
2022/02/22 11:07:51;;;;;;;23.63;3.67;;;6.80;99.90;;;;;;12523768;28;20064;-83
2022/02/22 11:14:03;;;;;;;28.73;4.25;;;6.80;99.90;;;;;;12520223;28;20045;-82
2022/02/22 11:20:30;;;;;;;20.90;4.47;;;6.90;99.90;;;;;;12533191;28;20053;-84
2022/02/22 11:26:46;;;;;;;22.25;3.88;;;6.90;99.90;;;;;;12518836;28;20049;-82
2022/02/22 11:33:01;;;;;;;15.23;3.08;;;7.00;99.90;;;;;;12516471;28;20050;-82
2022/02/22 11:39:04;;;;;;;24.50;3.75;;;6.90;99.90;;;;;;12517079;28;20137;-85
2022/02/22 11:45:09;;;;;;;23.17;4.05;;;6.80;99.90;;;;;;12533327;28;20638;-83
2022/02/22 11:51:15;;;;;;;18.67;3.20;;;6.80;99.90;;;;;;12582203;28;20029;-86
2022/02/22 11:57:18;;;;;;;18.80;2.80;;;6.80;99.90;;;;;;12543539;28;20549;-83
2022/02/22 12:03:23;;;;;;;15.98;3.35;;;6.80;99.90;;;;;;12526937;28;20067;-83
2022/02/22 12:09:43;;;;;;;12.20;2.70;;;7.00;99.90;;;;;;12537216;28;20037;-83
2022/02/22 12:15:46;;;;;;;13.13;2.58;;;7.00;99.90;;;;;;12517476;28;20054;-82
2022/02/22 12:21:54;;;;;;;17.13;2.90;;;7.10;99.90;;;;;;12527760;28;20095;-82
2022/02/22 12:28:07;;;;;;;21.02;3.08;;;7.00;99.90;;;;;;12509639;28;20431;-36
2022/02/22 12:34:12;;;;;;;17.60;2.50;;;7.00;99.90;;;;;;12466925;28;20075;-37
2022/02/22 12:40:17;;;;;;;17.77;3.30;;;7.00;99.90;;;;;;12443745;28;20105;-40
2022/02/22 12:46:20;;;;;;;;;;;7.10;99.90;;;;;;12447149;28;20057;-37
2022/02/22 12:52:22;;;;;;;17.90;2.80;;;7.20;99.90;;;;;;12445480;28;19969;-36
2022/02/22 12:58:44;;;;;;;14.25;2.85;;;7.20;99.90;;;;;;12444949;28;20065;-38
2022/02/22 13:04:50;;;;;;;13.73;2.72;;;7.40;99.90;;;;;;12441041;28;20053;-40
2022/02/22 13:11:12;;;;;;;13.13;3.67;;;7.40;99.90;;;;;;12451121;28;20049;-40
2022/02/22 13:17:17;;;;;;;13.70;3.45;;;7.30;99.90;;;;;;12493860;28;20100;-37
2022/02/22 13:23:34;;;;;;;16.20;2.75;;;7.30;99.90;;;;;;12493887;28;20049;-41
2022/02/22 13:29:36;;;;;;;18.40;3.45;;;7.20;99.90;;;;;;12500771;28;20049;-36
2022/02/22 13:35:39;;;;;;;17.60;3.50;;;7.20;99.90;;;;;;12486506;28;20053;-36
2022/02/22 13:42:05;;;;;;;17.80;2.95;;;7.10;99.90;;;;;;12468521;28;20072;-36
2022/02/22 13:48:17;;;;;;;19.45;3.92;;;7.10;99.90;;;;;;12468672;28;20057;-40
2022/02/22 13:54:24;;;;;;;13.60;3.20;;;6.90;99.90;;;;;;12471059;28;20088;-40
2022/02/22 14:00:30;;;;;;;19.23;3.78;;;6.80;99.90;;;;;;12470770;28;20080;-37
2022/02/22 14:06:45;;;;;;;17.83;3.88;;;6.40;99.90;;;;;;12478316;28;20073;-40
2022/02/22 14:12:52;;;;;;;16.90;4.32;;;6.30;99.90;;;;;;12466032;28;20049;-36
2022/02/22 14:19:01;;;;;;;18.38;4.60;;;6.20;99.90;;;;;;12465935;28;20110;-37
2022/02/22 14:25:10;;;;;;;20.58;5.50;;;6.30;99.90;;;;;;12466400;28;20620;-36
2022/02/22 14:31:19;;;;;;;23.33;5.47;;;6.20;99.90;;;;;;12469416;28;20049;-40
2022/02/22 14:37:26;;;;;;;18.52;5.13;;;6.20;99.90;;;;;;12471174;28;20058;-36
2022/02/22 14:43:37;;;;;;;18.30;5.38;;;6.20;99.90;;;;;;12469161;28;20065;-36
2022/02/22 14:49:51;;;;;;;13.57;4.60;;;6.20;99.90;;;;;;12475203;28;20046;-36
2022/02/22 14:56:01;;;;;;;12.18;4.35;;;6.10;99.90;;;;;;12466195;28;20136;-39
2022/02/22 15:02:10;;;;;;;14.77;4.72;;;6.10;99.90;;;;;;12463319;28;20518;-36
2022/02/22 15:08:17;;;;;;;17.83;5.22;;;6.20;99.90;;;;;;12464030;28;20132;-36
2022/02/22 15:14:27;;;;;;;15.73;5.63;;;6.20;99.90;;;;;;12460335;28;20053;-36
2022/02/22 15:20:43;;;;;;;25.40;6.57;;;6.20;99.90;;;;;;12467191;28;20102;-40
2022/02/22 15:26:52;;;;;;;21.80;6.78;;;6.30;99.90;;;;;;12459003;28;20060;-36
2022/02/22 15:32:57;;;;;;;20.45;6.93;;;6.30;99.90;;;;;;12461671;28;20041;-40
2022/02/22 15:39:04;;;;;;;21.20;7.43;;;6.40;99.90;;;;;;12474282;28;20061;-40
2022/02/22 15:45:11;;;;;;;20.65;7.40;;;6.40;99.90;;;;;;12459166;28;20041;-39
2022/02/22 15:51:16;;;;;;;23.07;7.63;;;6.40;99.90;;;;;;12460507;28;20045;-36
2022/02/22 15:57:22;;;;;;;20.90;7.60;;;6.40;99.90;;;;;;12464199;28;20297;-40
2022/02/22 16:03:34;;;;;;;20.15;7.57;;;6.40;99.90;;;;;;12465269;28;20041;-36
2022/02/22 16:09:49;;;;;;;21.40;7.32;;;6.50;99.90;;;;;;12462448;28;20058;-36
2022/02/22 16:16:00;;;;;;;16.77;6.90;;;6.50;99.90;;;;;;12442076;28;20537;-40
2022/02/22 16:22:11;;;;;;;19.88;7.95;;;6.50;99.90;;;;;;12463935;28;20058;-40
2022/02/22 16:28:20;;;;;;;18.05;6.93;;;6.50;99.90;;;;;;12447582;28;20049;-38
2022/02/22 16:34:31;;;;;;;16.80;7.00;;;6.60;99.90;;;;;;12465741;28;20049;-40
2022/02/22 16:40:50;;;;;;;13.10;6.53;;;6.60;99.90;;;;;;12464404;28;20064;-40
2022/02/22 16:47:00;;;;;;;20.50;7.90;;;6.70;99.90;;;;;;12469522;28;20057;-40
2022/02/22 16:53:15;;;;;;;17.83;8.35;;;6.70;99.90;;;;;;12458367;28;20056;-36
2022/02/22 16:59:22;;;;;;;22.13;10.00;;;6.80;99.90;;;;;;12462688;28;20141;-36
2022/02/22 17:05:24;;;;;;;23.83;9.23;;;6.90;99.90;;;;;;12457786;28;20046;-36
2022/02/22 17:11:30;;;;;;;20.23;10.75;;;6.90;99.90;;;;;;12458620;28;20049;-37
2022/02/22 17:17:36;;;;;;;23.65;12.82;;;7.00;99.90;;;;;;12466097;28;20053;-36
2022/02/22 17:23:39;;;;;;;27.15;12.27;;;7.10;99.90;;;;;;12456036;28;20173;-40
2022/02/22 17:29:41;;;;;;;23.45;12.18;;;7.10;99.90;;;;;;12463767;28;20160;-41
2022/02/22 17:35:44;;;;;;;33.90;13.45;;;7.20;99.90;;;;;;12457351;28;20093;-42
2022/02/22 17:41:48;;;;;;;26.50;12.82;;;7.20;99.90;;;;;;12461287;28;20046;-36
2022/02/22 17:47:55;;;;;;;29.45;13.73;;;7.30;99.90;;;;;;12460161;28;20037;-41
2022/02/22 17:53:57;;;;;;;36.30;15.10;;;7.30;99.90;;;;;;12463903;28;20085;-36
2022/02/22 17:59:59;;;;;;;25.88;13.82;;;7.40;99.90;;;;;;12459309;28;20512;-37
2022/02/22 18:06:02;;;;;;;25.00;15.30;;;7.40;99.90;;;;;;12459379;28;20041;-41
2022/02/22 18:12:05;;;;;;;30.60;15.25;;;7.50;99.90;;;;;;12451738;28;20577;-36
2022/02/22 18:18:06;;;;;;;23.48;13.93;;;7.50;99.90;;;;;;12455103;28;20126;-37
2022/02/22 18:24:09;;;;;;;23.63;13.60;;;7.60;99.90;;;;;;12454551;28;20142;-40
2022/02/22 18:30:14;;;;;;;25.85;13.82;;;7.70;99.90;;;;;;12454190;28;20045;-40
2022/02/22 18:36:17;;;;;;;;;;;7.80;99.90;;;;;;12454184;28;20045;-40
2022/02/22 18:42:20;;;;;;;17.23;11.23;;;7.80;99.90;;;;;;12453673;28;19964;-37
2022/02/22 18:48:21;;;;;;;25.63;12.20;;;7.90;99.90;;;;;;12459339;28;20106;-40
2022/02/22 18:54:24;;;;;;;21.48;11.57;;;8.00;99.90;;;;;;12456454;28;20065;-41
2022/02/22 19:00:26;;;;;;;23.75;11.05;;;8.00;99.90;;;;;;12455141;28;20675;-36
2022/02/22 19:06:28;;;;;;;19.35;9.25;;;8.00;99.90;;;;;;12458460;28;20049;-40
2022/02/22 19:12:30;;;;;;;14.98;7.47;;;8.10;99.90;;;;;;12451928;28;20450;-40
2022/02/22 19:18:34;;;;;;;9.55;5.45;;;8.20;99.90;;;;;;12454028;28;20049;-37
2022/02/22 19:24:36;;;;;;;9.20;4.67;;;8.30;99.90;;;;;;12449593;28;20100;-37
2022/02/22 19:30:40;;;;;;;13.95;2.90;;;8.40;99.90;;;;;;12453774;28;20053;-41
2022/02/22 19:36:43;;;;;;;8.55;2.95;;;8.30;99.90;;;;;;12451996;28;20584;-37
2022/02/22 19:42:45;;;;;;;16.02;2.78;;;8.20;99.90;;;;;;12451910;28;20563;-37
2022/02/22 19:48:47;;;;;;;15.95;2.55;;;8.10;99.90;;;;;;12451521;28;20061;-41
2022/02/22 19:54:49;;;;;;;18.02;2.40;;;8.00;99.90;;;;;;12456607;28;20061;-40
2022/02/22 20:00:50;;;;;;;13.57;2.40;;;8.00;99.90;;;;;;12450618;28;20096;-37
2022/02/22 20:06:53;;;;;;;15.82;2.65;;;7.90;99.90;;;;;;12453484;28;20097;-39
2022/02/22 20:12:55;;;;;;;11.82;2.40;;;7.80;99.90;;;;;;12453386;28;20675;-36
2022/02/22 20:18:58;;;;;;;13.07;1.85;;;7.70;99.90;;;;;;12451239;28;20095;-41
2022/02/22 20:25:00;;;;;;;11.30;2.15;;;7.70;99.90;;;;;;12450960;28;20731;-37
2022/02/22 20:31:03;;;;;;;7.35;1.58;;;7.50;99.90;;;;;;12451157;28;20183;-40
2022/02/22 20:37:05;;;;;;;13.98;1.85;;;7.50;99.90;;;;;;12449816;28;20100;-40
2022/02/22 20:43:09;;;;;;;9.32;1.50;;;7.30;99.90;;;;;;12454914;28;20531;-40
2022/02/22 20:49:11;;;;;;;8.90;1.30;;;7.20;99.90;;;;;;12456104;28;20042;-37
2022/02/22 20:55:14;;;;;;;8.73;1.30;;;7.00;99.90;;;;;;12458013;28;20503;-36
2022/02/22 21:01:16;;;;;;;10.38;1.77;;;6.90;99.90;;;;;;12457921;28;20148;-37
2022/02/22 21:07:18;;;;;;;13.55;1.88;;;6.90;99.90;;;;;;12458088;28;20483;-36
2022/02/22 21:13:20;;;;;;;14.27;1.80;;;6.80;99.90;;;;;;12456121;28;20061;-40
2022/02/22 21:19:22;;;;;;;12.93;1.48;;;6.80;99.90;;;;;;12458515;28;20079;-41
2022/02/22 21:25:24;;;;;;;14.30;1.70;;;6.70;99.90;;;;;;12456824;28;20062;-40
2022/02/22 21:31:26;;;;;;;19.55;2.10;;;6.70;99.90;;;;;;12456704;28;20084;-37
2022/02/22 21:37:28;;;;;;;15.90;2.05;;;6.60;99.90;;;;;;12460517;28;20413;-41
2022/02/22 21:43:31;;;;;;;20.25;2.85;;;6.60;99.90;;;;;;12456798;28;20049;-43
2022/02/22 21:49:33;;;;;;;14.70;2.60;;;6.50;99.90;;;;;;12457695;28;20483;-37
2022/02/22 21:55:38;;;;;;;13.00;2.00;;;6.40;99.90;;;;;;12456134;28;20057;-36
2022/02/22 22:01:41;;;;;;;13.52;1.95;;;6.20;99.90;;;;;;12454072;28;20049;-44
2022/02/22 22:07:43;;;;;;;18.88;2.25;;;6.10;99.90;;;;;;12454349;28;20065;-38
2022/02/22 22:13:45;;;;;;;13.05;2.75;;;6.10;99.90;;;;;;12452320;28;20498;-43
2022/02/22 22:19:47;;;;;;;15.48;2.40;;;6.00;99.90;;;;;;12453813;28;20555;-42
2022/02/22 22:25:49;;;;;;;17.48;2.35;;;5.90;99.90;;;;;;12452758;28;20469;-36
2022/02/22 22:31:51;;;;;;;14.35;2.53;;;5.80;99.90;;;;;;12450765;28;20133;-40
2022/02/22 22:37:53;;;;;;;19.15;2.58;;;5.80;99.90;;;;;;12452342;28;20075;-37
2022/02/22 22:43:55;;;;;;;17.92;3.22;;;5.80;99.90;;;;;;12451224;28;20076;-37
2022/02/22 22:49:58;;;;;;;19.92;2.50;;;5.60;99.90;;;;;;12454863;28;20041;-36
2022/02/22 22:56:00;;;;;;;18.73;3.00;;;5.50;99.90;;;;;;12452847;28;20111;-41
2022/02/22 23:02:02;;;;;;;23.98;2.78;;;5.50;99.90;;;;;;12453789;28;20161;-37
2022/02/22 23:14:29;;;;;;;15.07;2.23;;;5.30;99.90;;;;;;12448400;28;20083;-40
2022/02/22 23:20:31;;;;;;;24.88;3.33;;;5.20;99.90;;;;;;12454630;28;20057;-37
2022/02/22 23:26:33;;;;;;;18.63;2.47;;;5.30;99.90;;;;;;12449733;28;20058;-40
2022/02/22 23:32:35;;;;;;;19.63;2.80;;;5.30;99.90;;;;;;12451648;28;20494;-36
2022/02/22 23:38:37;;;;;;;14.82;2.97;;;5.40;99.90;;;;;;12453466;28;20088;-40
2022/02/22 23:44:39;;;;;;;14.73;2.35;;;5.30;99.90;;;;;;12452410;28;20399;-41
2022/02/22 23:50:41;;;;;;;20.95;2.45;;;5.40;99.90;;;;;;12450454;28;20049;-36
2022/02/22 23:56:45;;;;;;;22.63;2.53;;;5.30;99.90;;;;;;12450030;28;20053;-36
